Airfield :
LOGIN :

Register | Disclaimer

   EN    FR    IT 

 










Legend :    VFR   Marginal VFR   IFR   Intensive IFR   Very Intensive IFR
Visi :
Ceiling :
>= 8 km
>= 3000ft
5 to 8 km
1000 to 3000 ft
1500m to 5 km
500 to 1000 ft
800 to 1500m
200 to 500 ft
< 800m
< 200 ft
Symbols :   Thunderstorms  Fog  Heavy snow  Heavy precipitations  Wind > 20 kt
SIGMETs :     Misc.  Thunderstorms  Icing  Turbulence  Mountain Waves  Volcanic Ashes






- Airport Elevation : 266 ft
- IATA code : NCL


EGNT - Newcastle

CURRENT METAR :
  • 270250Z AUTO 24011KT 9999 NCD 07/05 Q0993

EXPIRED METARs :
  • 270220Z AUTO 25010KT 9999 FEW013/// 07/04 Q0993
  • 270150Z AUTO 25009KT 9999 FEW047/// 08/05 Q0993
  • 270120Z 25012KT 9999 FEW025 08/05 Q0993
  • 270050Z 26010KT 9999 FEW016 BKN025 09/05 Q0993
  • 270020Z 26012KT 9999 FEW017 BKN027 09/05 Q0993

TAF TAF EGNT
Valid from the 27 at 00:00 until the 28 at 00:00 UTC


262300Z 2700/2724 26012KT 9999 FEW025
BECMG 2706/2709 16012KT
TEMPO 2712/2718 8000 -RA BKN012
PROB30
TEMPO 2712/2718 4000 RA BKN009
BECMG 2714/2717 26010KT
ATIS : +44 191 214 3400



MET'MAP, your aeronautical weather chart ! - Copyright ORBIFLY December 2007 - Disclaimer

ORBIFLY MET'MAP TEAM :

Programming & Development : Alexandra Zaïnal
Concept & original design : Baudouin d'Aumeries
Assistance for programming : Marc-Olivier Méhu
Technical & hardware support : Manuel Goepfert

Contact : metmap@orbifly.com




SOURCES & CREDITS :

   NOAA